sensor_id;sensor_type;location;lat;lon;timestamp;P1;durP1;ratioP1;P2;durP2;ratioP2
7479;SDS011;3781;42.272;22.658;2023-02-19T00:00:57;0.80;;;0.43;;
7479;SDS011;3781;42.272;22.658;2023-02-19T00:03:25;1.60;;;0.60;;
7479;SDS011;3781;42.272;22.658;2023-02-19T00:05:52;3.13;;;1.33;;
7479;SDS011;3781;42.272;22.658;2023-02-19T00:08:18;6.63;;;1.13;;
7479;SDS011;3781;42.272;22.658;2023-02-19T00:10:46;2.13;;;0.90;;
7479;SDS011;3781;42.272;22.658;2023-02-19T00:13:13;4.43;;;1.03;;
7479;SDS011;3781;42.272;22.658;2023-02-19T00:15:40;0.50;;;0.30;;
7479;SDS011;3781;42.272;22.658;2023-02-19T00:18:06;0.20;;;0.20;;
7479;SDS011;3781;42.272;22.658;2023-02-19T00:20:33;1.60;;;1.50;;
7479;SDS011;3781;42.272;22.658;2023-02-19T00:23:00;0.90;;;0.90;;
7479;SDS011;3781;42.272;22.658;2023-02-19T00:25:26;1.57;;;1.47;;
7479;SDS011;3781;42.272;22.658;2023-02-19T00:27:54;1.03;;;0.47;;
7479;SDS011;3781;42.272;22.658;2023-02-19T00:30:21;1.20;;;0.90;;
7479;SDS011;3781;42.272;22.658;2023-02-19T00:32:49;1.03;;;0.40;;
7479;SDS011;3781;42.272;22.658;2023-02-19T00:35:16;0.57;;;0.40;;
7479;SDS011;3781;42.272;22.658;2023-02-19T00:37:43;1.27;;;1.07;;
7479;SDS011;3781;42.272;22.658;2023-02-19T00:40:09;0.40;;;0.40;;
7479;SDS011;3781;42.272;22.658;2023-02-19T00:42:36;0.10;;;0.10;;
7479;SDS011;3781;42.272;22.658;2023-02-19T00:45:05;2.17;;;1.10;;
7479;SDS011;3781;42.272;22.658;2023-02-19T00:47:32;4.53;;;2.67;;
7479;SDS011;3781;42.272;22.658;2023-02-19T00:49:58;1.10;;;1.10;;
7479;SDS011;3781;42.272;22.658;2023-02-19T00:52:25;0.63;;;0.63;;
7479;SDS011;3781;42.272;22.658;2023-02-19T00:54:52;1.77;;;1.07;;
7479;SDS011;3781;42.272;22.658;2023-02-19T00:57:18;1.57;;;1.47;;
7479;SDS011;3781;42.272;22.658;2023-02-19T00:59:45;1.80;;;1.70;;
7479;SDS011;3781;42.272;22.658;2023-02-19T01:02:13;23.97;;;2.17;;
7479;SDS011;3781;42.272;22.658;2023-02-19T01:04:40;1.70;;;1.60;;
7479;SDS011;3781;42.272;22.658;2023-02-19T01:07:06;1.50;;;0.63;;
7479;SDS011;3781;42.272;22.658;2023-02-19T01:09:33;6.30;;;1.10;;
7479;SDS011;3781;42.272;22.658;2023-02-19T01:12:00;0.77;;;0.77;;
7479;SDS011;3781;42.272;22.658;2023-02-19T01:14:27;0.17;;;0.17;;
7479;SDS011;3781;42.272;22.658;2023-02-19T01:16:53;2.80;;;0.83;;
7479;SDS011;3781;42.272;22.658;2023-02-19T01:19:21;1.00;;;1.00;;
7479;SDS011;3781;42.272;22.658;2023-02-19T01:21:48;4.40;;;1.50;;
7479;SDS011;3781;42.272;22.658;2023-02-19T01:24:15;1.70;;;1.07;;
7479;SDS011;3781;42.272;22.658;2023-02-19T01:26:41;1.43;;;1.33;;
7479;SDS011;3781;42.272;22.658;2023-02-19T01:29:08;3.90;;;1.33;;
7479;SDS011;3781;42.272;22.658;2023-02-19T01:31:35;1.47;;;1.47;;
7479;SDS011;3781;42.272;22.658;2023-02-19T01:34:04;1.07;;;1.07;;
7479;SDS011;3781;42.272;22.658;2023-02-19T01:36:33;1.83;;;1.73;;
7479;SDS011;3781;42.272;22.658;2023-02-19T01:39:02;0.33;;;0.33;;
7479;SDS011;3781;42.272;22.658;2023-02-19T01:41:32;3.03;;;1.27;;
7479;SDS011;3781;42.272;22.658;2023-02-19T01:44:01;2.07;;;1.43;;
7479;SDS011;3781;42.272;22.658;2023-02-19T01:46:32;2.83;;;2.60;;
7479;SDS011;3781;42.272;22.658;2023-02-19T01:49:01;0.83;;;0.53;;
7479;SDS011;3781;42.272;22.658;2023-02-19T01:51:32;5.47;;;1.47;;
7479;SDS011;3781;42.272;22.658;2023-02-19T01:54:02;0.10;;;0.10;;
7479;SDS011;3781;42.272;22.658;2023-02-19T01:56:33;2.13;;;2.03;;
7479;SDS011;3781;42.272;22.658;2023-02-19T01:59:03;6.30;;;1.33;;
7479;SDS011;3781;42.272;22.658;2023-02-19T02:01:31;1.40;;;0.70;;
7479;SDS011;3781;42.272;22.658;2023-02-19T02:03:58;1.60;;;0.93;;
7479;SDS011;3781;42.272;22.658;2023-02-19T02:06:26;0.53;;;0.53;;
7479;SDS011;3781;42.272;22.658;2023-02-19T02:08:57;2.03;;;0.50;;
7479;SDS011;3781;42.272;22.658;2023-02-19T02:11:43;0.77;;;0.77;;
7479;SDS011;3781;42.272;22.658;2023-02-19T02:14:13;1.30;;;1.20;;
7479;SDS011;3781;42.272;22.658;2023-02-19T02:16:44;5.50;;;0.87;;
7479;SDS011;3781;42.272;22.658;2023-02-19T02:19:24;3.30;;;1.67;;
7479;SDS011;3781;42.272;22.658;2023-02-19T02:22:05;2.13;;;1.40;;
7479;SDS011;3781;42.272;22.658;2023-02-19T02:27:46;1.30;;;1.13;;
7479;SDS011;3781;42.272;22.658;2023-02-19T02:30:23;1.20;;;1.10;;
7479;SDS011;3781;42.272;22.658;2023-02-19T02:32:56;2.63;;;1.33;;
7479;SDS011;3781;42.272;22.658;2023-02-19T02:35:29;3.33;;;1.77;;
7479;SDS011;3781;42.272;22.658;2023-02-19T02:38:04;10.43;;;1.13;;
7479;SDS011;3781;42.272;22.658;2023-02-19T02:40:33;0.10;;;0.10;;
7479;SDS011;3781;42.272;22.658;2023-02-19T02:43:01;1.90;;;0.63;;
7479;SDS011;3781;42.272;22.658;2023-02-19T02:45:30;0.47;;;0.47;;
7479;SDS011;3781;42.272;22.658;2023-02-19T02:48:00;0.43;;;0.43;;
7479;SDS011;3781;42.272;22.658;2023-02-19T02:50:34;2.50;;;1.77;;
7479;SDS011;3781;42.272;22.658;2023-02-19T02:53:04;0.60;;;0.53;;
7479;SDS011;3781;42.272;22.658;2023-02-19T02:55:53;0.30;;;0.30;;
7479;SDS011;3781;42.272;22.658;2023-02-19T02:58:21;2.20;;;1.70;;
7479;SDS011;3781;42.272;22.658;2023-02-19T03:00:53;1.80;;;1.63;;
7479;SDS011;3781;42.272;22.658;2023-02-19T03:03:42;2.10;;;0.60;;
7479;SDS011;3781;42.272;22.658;2023-02-19T03:06:13;10.20;;;1.90;;
7479;SDS011;3781;42.272;22.658;2023-02-19T03:08:43;1.43;;;1.07;;
7479;SDS011;3781;42.272;22.658;2023-02-19T03:11:14;1.53;;;1.00;;
7479;SDS011;3781;42.272;22.658;2023-02-19T03:13:59;2.27;;;1.03;;
7479;SDS011;3781;42.272;22.658;2023-02-19T03:16:49;10.03;;;2.07;;
7479;SDS011;3781;42.272;22.658;2023-02-19T03:19:40;3.43;;;1.63;;
7479;SDS011;3781;42.272;22.658;2023-02-19T03:22:11;1.90;;;1.70;;
7479;SDS011;3781;42.272;22.658;2023-02-19T03:24:42;4.40;;;1.77;;
7479;SDS011;3781;42.272;22.658;2023-02-19T03:27:31;4.33;;;1.80;;
7479;SDS011;3781;42.272;22.658;2023-02-19T03:30:01;1.60;;;0.67;;
7479;SDS011;3781;42.272;22.658;2023-02-19T03:32:35;0.30;;;0.20;;
7479;SDS011;3781;42.272;22.658;2023-02-19T03:35:06;2.07;;;0.90;;
7479;SDS011;3781;42.272;22.658;2023-02-19T03:37:37;2.20;;;1.33;;
7479;SDS011;3781;42.272;22.658;2023-02-19T03:40:08;0.53;;;0.53;;
7479;SDS011;3781;42.272;22.658;2023-02-19T03:42:37;0.30;;;0.30;;
7479;SDS011;3781;42.272;22.658;2023-02-19T03:45:13;1.40;;;0.67;;
7479;SDS011;3781;42.272;22.658;2023-02-19T03:47:49;2.20;;;0.77;;
7479;SDS011;3781;42.272;22.658;2023-02-19T03:50:23;1.67;;;0.83;;
7479;SDS011;3781;42.272;22.658;2023-02-19T03:52:54;4.20;;;2.57;;
7479;SDS011;3781;42.272;22.658;2023-02-19T03:55:29;1.00;;;0.67;;
7479;SDS011;3781;42.272;22.658;2023-02-19T03:58:02;1.43;;;1.33;;
7479;SDS011;3781;42.272;22.658;2023-02-19T04:00:36;2.77;;;1.43;;
7479;SDS011;3781;42.272;22.658;2023-02-19T04:03:09;3.33;;;1.23;;
7479;SDS011;3781;42.272;22.658;2023-02-19T04:05:45;1.10;;;0.87;;
7479;SDS011;3781;42.272;22.658;2023-02-19T04:08:16;0.70;;;0.70;;
7479;SDS011;3781;42.272;22.658;2023-02-19T04:10:45;3.10;;;1.63;;
7479;SDS011;3781;42.272;22.658;2023-02-19T04:13:15;1.00;;;0.77;;
7479;SDS011;3781;42.272;22.658;2023-02-19T04:15:45;1.93;;;1.03;;
7479;SDS011;3781;42.272;22.658;2023-02-19T04:18:16;0.20;;;0.20;;
7479;SDS011;3781;42.272;22.658;2023-02-19T04:20:46;1.83;;;0.77;;
7479;SDS011;3781;42.272;22.658;2023-02-19T04:23:15;1.07;;;0.53;;
7479;SDS011;3781;42.272;22.658;2023-02-19T04:25:45;0.20;;;0.20;;
7479;SDS011;3781;42.272;22.658;2023-02-19T04:28:16;3.57;;;0.53;;
7479;SDS011;3781;42.272;22.658;2023-02-19T04:30:43;0.00;;;0.00;;
7479;SDS011;3781;42.272;22.658;2023-02-19T04:33:11;0.30;;;0.30;;
7479;SDS011;3781;42.272;22.658;2023-02-19T04:35:39;1.40;;;0.70;;
7479;SDS011;3781;42.272;22.658;2023-02-19T04:38:05;0.30;;;0.30;;
7479;SDS011;3781;42.272;22.658;2023-02-19T04:40:32;0.43;;;0.43;;
7479;SDS011;3781;42.272;22.658;2023-02-19T04:42:59;0.77;;;0.70;;
7479;SDS011;3781;42.272;22.658;2023-02-19T04:45:26;3.03;;;0.60;;
7479;SDS011;3781;42.272;22.658;2023-02-19T04:47:52;0.87;;;0.77;;
7479;SDS011;3781;42.272;22.658;2023-02-19T04:50:19;2.47;;;0.80;;
7479;SDS011;3781;42.272;22.658;2023-02-19T04:52:48;0.00;;;0.00;;
7479;SDS011;3781;42.272;22.658;2023-02-19T04:55:15;0.57;;;0.57;;
7479;SDS011;3781;42.272;22.658;2023-02-19T04:57:42;1.23;;;0.80;;
7479;SDS011;3781;42.272;22.658;2023-02-19T05:00:09;1.00;;;0.90;;
7479;SDS011;3781;42.272;22.658;2023-02-19T05:02:36;1.17;;;1.07;;
7479;SDS011;3781;42.272;22.658;2023-02-19T05:05:03;0.00;;;0.00;;
7479;SDS011;3781;42.272;22.658;2023-02-19T05:07:30;2.00;;;0.40;;
7479;SDS011;3781;42.272;22.658;2023-02-19T05:09:59;0.57;;;0.57;;
7479;SDS011;3781;42.272;22.658;2023-02-19T05:12:25;6.10;;;1.03;;
7479;SDS011;3781;42.272;22.658;2023-02-19T05:14:52;0.83;;;0.67;;
7479;SDS011;3781;42.272;22.658;2023-02-19T05:17:19;0.20;;;0.20;;
7479;SDS011;3781;42.272;22.658;2023-02-19T05:19:45;0.40;;;0.30;;
7479;SDS011;3781;42.272;22.658;2023-02-19T05:22:12;0.43;;;0.23;;
7479;SDS011;3781;42.272;22.658;2023-02-19T05:24:39;0.17;;;0.17;;
7479;SDS011;3781;42.272;22.658;2023-02-19T05:27:07;1.50;;;1.40;;
7479;SDS011;3781;42.272;22.658;2023-02-19T05:29:33;1.20;;;0.50;;
7479;SDS011;3781;42.272;22.658;2023-02-19T05:32:00;3.70;;;0.87;;
7479;SDS011;3781;42.272;22.658;2023-02-19T05:34:27;5.93;;;1.90;;
7479;SDS011;3781;42.272;22.658;2023-02-19T05:36:53;1.90;;;0.40;;
7479;SDS011;3781;42.272;22.658;2023-02-19T05:39:20;2.47;;;1.33;;
7479;SDS011;3781;42.272;22.658;2023-02-19T05:41:47;5.80;;;0.93;;
7479;SDS011;3781;42.272;22.658;2023-02-19T05:44:15;0.20;;;0.20;;
7479;SDS011;3781;42.272;22.658;2023-02-19T05:46:41;1.80;;;1.40;;
7479;SDS011;3781;42.272;22.658;2023-02-19T05:49:08;0.67;;;0.67;;
7479;SDS011;3781;42.272;22.658;2023-02-19T05:51:35;0.60;;;0.60;;
7479;SDS011;3781;42.272;22.658;2023-02-19T05:54:02;2.07;;;0.57;;
7479;SDS011;3781;42.272;22.658;2023-02-19T05:56:30;1.43;;;0.87;;
7479;SDS011;3781;42.272;22.658;2023-02-19T05:58:58;0.63;;;0.63;;
7479;SDS011;3781;42.272;22.658;2023-02-19T06:01:29;2.40;;;1.17;;
7479;SDS011;3781;42.272;22.658;2023-02-19T06:03:56;3.37;;;1.60;;
7479;SDS011;3781;42.272;22.658;2023-02-19T06:06:23;0.20;;;0.20;;
7479;SDS011;3781;42.272;22.658;2023-02-19T06:08:51;0.20;;;0.20;;
7479;SDS011;3781;42.272;22.658;2023-02-19T06:11:18;10.90;;;3.07;;
7479;SDS011;3781;42.272;22.658;2023-02-19T06:13:45;1.67;;;1.57;;
7479;SDS011;3781;42.272;22.658;2023-02-19T06:16:13;2.67;;;2.07;;
7479;SDS011;3781;42.272;22.658;2023-02-19T06:18:43;3.50;;;1.50;;
7479;SDS011;3781;42.272;22.658;2023-02-19T06:21:10;3.33;;;1.43;;
7479;SDS011;3781;42.272;22.658;2023-02-19T06:23:37;1.60;;;1.50;;
7479;SDS011;3781;42.272;22.658;2023-02-19T06:26:07;2.53;;;1.27;;
7479;SDS011;3781;42.272;22.658;2023-02-19T06:28:35;1.17;;;1.17;;
7479;SDS011;3781;42.272;22.658;2023-02-19T06:31:02;7.00;;;3.93;;
7479;SDS011;3781;42.272;22.658;2023-02-19T06:33:29;2.90;;;2.60;;
7479;SDS011;3781;42.272;22.658;2023-02-19T06:35:58;3.13;;;2.63;;
7479;SDS011;3781;42.272;22.658;2023-02-19T06:38:26;4.77;;;1.97;;
7479;SDS011;3781;42.272;22.658;2023-02-19T06:40:53;4.53;;;2.77;;
7479;SDS011;3781;42.272;22.658;2023-02-19T06:43:20;2.70;;;2.00;;
7479;SDS011;3781;42.272;22.658;2023-02-19T06:45:47;8.33;;;4.70;;
7479;SDS011;3781;42.272;22.658;2023-02-19T06:48:13;20.40;;;10.37;;
7479;SDS011;3781;42.272;22.658;2023-02-19T06:50:40;20.83;;;10.37;;
7479;SDS011;3781;42.272;22.658;2023-02-19T06:53:08;24.47;;;10.80;;
7479;SDS011;3781;42.272;22.658;2023-02-19T06:55:35;10.83;;;7.40;;
7479;SDS011;3781;42.272;22.658;2023-02-19T06:58:04;18.37;;;6.70;;
7479;SDS011;3781;42.272;22.658;2023-02-19T07:00:32;18.87;;;5.93;;
7479;SDS011;3781;42.272;22.658;2023-02-19T07:02:59;13.73;;;4.73;;
7479;SDS011;3781;42.272;22.658;2023-02-19T07:05:26;26.70;;;10.90;;
7479;SDS011;3781;42.272;22.658;2023-02-19T07:07:53;11.30;;;7.50;;
7479;SDS011;3781;42.272;22.658;2023-02-19T07:10:21;27.60;;;13.13;;
7479;SDS011;3781;42.272;22.658;2023-02-19T07:12:47;25.20;;;10.27;;
7479;SDS011;3781;42.272;22.658;2023-02-19T07:15:14;32.87;;;13.87;;
7479;SDS011;3781;42.272;22.658;2023-02-19T07:17:41;19.37;;;9.20;;
7479;SDS011;3781;42.272;22.658;2023-02-19T07:20:08;24.67;;;11.53;;
7479;SDS011;3781;42.272;22.658;2023-02-19T07:22:35;25.10;;;11.13;;
7479;SDS011;3781;42.272;22.658;2023-02-19T07:25:01;23.87;;;12.07;;
7479;SDS011;3781;42.272;22.658;2023-02-19T07:27:29;42.23;;;16.57;;
7479;SDS011;3781;42.272;22.658;2023-02-19T07:29:56;32.90;;;15.67;;
7479;SDS011;3781;42.272;22.658;2023-02-19T07:32:23;40.43;;;16.90;;
7479;SDS011;3781;42.272;22.658;2023-02-19T07:34:50;24.07;;;15.30;;
7479;SDS011;3781;42.272;22.658;2023-02-19T07:37:16;40.80;;;17.97;;
7479;SDS011;3781;42.272;22.658;2023-02-19T07:39:43;29.67;;;16.20;;
7479;SDS011;3781;42.272;22.658;2023-02-19T07:42:10;35.23;;;14.30;;
7479;SDS011;3781;42.272;22.658;2023-02-19T07:44:38;29.67;;;15.57;;
7479;SDS011;3781;42.272;22.658;2023-02-19T07:47:04;30.33;;;15.70;;
7479;SDS011;3781;42.272;22.658;2023-02-19T07:49:31;41.37;;;13.57;;
7479;SDS011;3781;42.272;22.658;2023-02-19T07:51:58;28.30;;;13.83;;
7479;SDS011;3781;42.272;22.658;2023-02-19T07:54:25;32.10;;;14.87;;
7479;SDS011;3781;42.272;22.658;2023-02-19T07:56:52;35.37;;;17.40;;
7479;SDS011;3781;42.272;22.658;2023-02-19T07:59:19;29.73;;;13.53;;
7479;SDS011;3781;42.272;22.658;2023-02-19T08:01:47;18.80;;;9.10;;
7479;SDS011;3781;42.272;22.658;2023-02-19T08:04:31;16.00;;;8.87;;
7479;SDS011;3781;42.272;22.658;2023-02-19T08:06:58;20.80;;;9.80;;
7479;SDS011;3781;42.272;22.658;2023-02-19T08:09:24;26.13;;;13.53;;
7479;SDS011;3781;42.272;22.658;2023-02-19T08:11:51;28.03;;;14.53;;
7479;SDS011;3781;42.272;22.658;2023-02-19T08:14:36;22.73;;;12.87;;
7479;SDS011;3781;42.272;22.658;2023-02-19T08:17:05;19.20;;;10.37;;
7479;SDS011;3781;42.272;22.658;2023-02-19T08:19:31;21.77;;;12.07;;
7479;SDS011;3781;42.272;22.658;2023-02-19T08:21:58;18.13;;;8.27;;
7479;SDS011;3781;42.272;22.658;2023-02-19T08:24:25;15.97;;;8.20;;
7479;SDS011;3781;42.272;22.658;2023-02-19T08:26:51;16.57;;;10.57;;
7479;SDS011;3781;42.272;22.658;2023-02-19T08:29:18;19.97;;;9.77;;
7479;SDS011;3781;42.272;22.658;2023-02-19T08:31:45;19.10;;;9.60;;
7479;SDS011;3781;42.272;22.658;2023-02-19T08:34:13;19.63;;;11.40;;
7479;SDS011;3781;42.272;22.658;2023-02-19T08:36:40;20.47;;;11.00;;
7479;SDS011;3781;42.272;22.658;2023-02-19T08:39:08;20.47;;;11.17;;
7479;SDS011;3781;42.272;22.658;2023-02-19T08:41:34;21.73;;;13.10;;
7479;SDS011;3781;42.272;22.658;2023-02-19T08:44:01;27.57;;;13.50;;
7479;SDS011;3781;42.272;22.658;2023-02-19T08:46:28;17.20;;;9.43;;
7479;SDS011;3781;42.272;22.658;2023-02-19T08:48:54;18.73;;;10.47;;
7479;SDS011;3781;42.272;22.658;2023-02-19T08:51:22;22.40;;;9.63;;
7479;SDS011;3781;42.272;22.658;2023-02-19T08:53:49;16.00;;;9.87;;
7479;SDS011;3781;42.272;22.658;2023-02-19T08:56:16;24.37;;;11.17;;
7479;SDS011;3781;42.272;22.658;2023-02-19T08:58:43;22.03;;;12.67;;
7479;SDS011;3781;42.272;22.658;2023-02-19T09:01:11;16.70;;;9.90;;
7479;SDS011;3781;42.272;22.658;2023-02-19T09:03:39;20.43;;;9.07;;
7479;SDS011;3781;42.272;22.658;2023-02-19T09:06:06;19.03;;;10.40;;
7479;SDS011;3781;42.272;22.658;2023-02-19T09:08:39;14.77;;;8.57;;
7479;SDS011;3781;42.272;22.658;2023-02-19T09:11:06;12.20;;;8.20;;
7479;SDS011;3781;42.272;22.658;2023-02-19T09:13:33;17.60;;;9.30;;
7479;SDS011;3781;42.272;22.658;2023-02-19T09:16:01;27.57;;;13.00;;
7479;SDS011;3781;42.272;22.658;2023-02-19T09:18:28;21.67;;;11.57;;
7479;SDS011;3781;42.272;22.658;2023-02-19T09:20:58;26.23;;;12.13;;
7479;SDS011;3781;42.272;22.658;2023-02-19T09:23:25;24.83;;;13.30;;
7479;SDS011;3781;42.272;22.658;2023-02-19T09:25:56;24.53;;;12.83;;
7479;SDS011;3781;42.272;22.658;2023-02-19T09:28:24;26.77;;;13.83;;
7479;SDS011;3781;42.272;22.658;2023-02-19T09:30:51;30.17;;;16.47;;
7479;SDS011;3781;42.272;22.658;2023-02-19T09:33:18;33.83;;;14.17;;
7479;SDS011;3781;42.272;22.658;2023-02-19T09:35:45;27.70;;;15.60;;
7479;SDS011;3781;42.272;22.658;2023-02-19T09:38:11;32.97;;;16.47;;
7479;SDS011;3781;42.272;22.658;2023-02-19T09:40:38;28.05;;;15.45;;
7479;SDS011;3781;42.272;22.658;2023-02-19T09:43:06;28.97;;;14.93;;
7479;SDS011;3781;42.272;22.658;2023-02-19T09:45:35;34.55;;;17.90;;
7479;SDS011;3781;42.272;22.658;2023-02-19T09:48:03;28.30;;;15.33;;
7479;SDS011;3781;42.272;22.658;2023-02-19T09:50:32;28.33;;;15.73;;
7479;SDS011;3781;42.272;22.658;2023-02-19T09:53:04;29.97;;;15.03;;
7479;SDS011;3781;42.272;22.658;2023-02-19T09:55:38;22.73;;;12.90;;
7479;SDS011;3781;42.272;22.658;2023-02-19T09:58:16;19.77;;;12.17;;
7479;SDS011;3781;42.272;22.658;2023-02-19T10:00:48;15.23;;;9.43;;
7479;SDS011;3781;42.272;22.658;2023-02-19T10:03:19;19.37;;;10.90;;
7479;SDS011;3781;42.272;22.658;2023-02-19T10:05:49;25.87;;;12.90;;
7479;SDS011;3781;42.272;22.658;2023-02-19T10:08:18;18.55;;;10.82;;
7479;SDS011;3781;42.272;22.658;2023-02-19T10:10:46;17.70;;;10.67;;
7479;SDS011;3781;42.272;22.658;2023-02-19T10:13:16;21.80;;;10.90;;
7479;SDS011;3781;42.272;22.658;2023-02-19T10:15:45;20.47;;;10.93;;
7479;SDS011;3781;42.272;22.658;2023-02-19T10:18:16;22.17;;;11.10;;
7479;SDS011;3781;42.272;22.658;2023-02-19T10:20:44;17.83;;;9.75;;
7479;SDS011;3781;42.272;22.658;2023-02-19T10:23:12;14.90;;;8.30;;
7479;SDS011;3781;42.272;22.658;2023-02-19T10:25:41;17.20;;;9.03;;
7479;SDS011;3781;42.272;22.658;2023-02-19T10:28:13;14.50;;;9.57;;
7479;SDS011;3781;42.272;22.658;2023-02-19T10:30:43;20.23;;;9.03;;
7479;SDS011;3781;42.272;22.658;2023-02-19T10:33:14;15.00;;;9.15;;
7479;SDS011;3781;42.272;22.658;2023-02-19T10:35:50;14.20;;;8.57;;
7479;SDS011;3781;42.272;22.658;2023-02-19T10:38:19;15.38;;;9.13;;
7479;SDS011;3781;42.272;22.658;2023-02-19T10:40:50;13.40;;;9.00;;
7479;SDS011;3781;42.272;22.658;2023-02-19T10:43:24;14.10;;;8.23;;
7479;SDS011;3781;42.272;22.658;2023-02-19T10:45:59;11.13;;;6.93;;
7479;SDS011;3781;42.272;22.658;2023-02-19T10:48:29;11.20;;;6.80;;
7479;SDS011;3781;42.272;22.658;2023-02-19T10:50:59;13.20;;;7.88;;
7479;SDS011;3781;42.272;22.658;2023-02-19T10:53:40;13.10;;;7.18;;
7479;SDS011;3781;42.272;22.658;2023-02-19T10:56:10;8.23;;;5.88;;
7479;SDS011;3781;42.272;22.658;2023-02-19T10:58:40;8.98;;;5.95;;
7479;SDS011;3781;42.272;22.658;2023-02-19T11:01:14;12.02;;;7.03;;
7479;SDS011;3781;42.272;22.658;2023-02-19T11:03:44;10.43;;;6.60;;
7479;SDS011;3781;42.272;22.658;2023-02-19T11:06:11;9.25;;;6.90;;
7479;SDS011;3781;42.272;22.658;2023-02-19T11:08:44;11.05;;;6.65;;
7479;SDS011;3781;42.272;22.658;2023-02-19T11:11:21;10.20;;;6.95;;
7479;SDS011;3781;42.272;22.658;2023-02-19T11:13:51;10.73;;;6.65;;
7479;SDS011;3781;42.272;22.658;2023-02-19T11:16:21;13.15;;;6.30;;
7479;SDS011;3781;42.272;22.658;2023-02-19T11:18:52;12.55;;;6.10;;
7479;SDS011;3781;42.272;22.658;2023-02-19T11:21:24;10.60;;;6.47;;
7479;SDS011;3781;42.272;22.658;2023-02-19T11:23:57;12.18;;;8.48;;
7479;SDS011;3781;42.272;22.658;2023-02-19T11:26:25;12.20;;;7.63;;
7479;SDS011;3781;42.272;22.658;2023-02-19T11:28:56;12.65;;;7.15;;
7479;SDS011;3781;42.272;22.658;2023-02-19T11:31:26;9.80;;;6.83;;
7479;SDS011;3781;42.272;22.658;2023-02-19T11:33:56;12.80;;;7.40;;
7479;SDS011;3781;42.272;22.658;2023-02-19T11:36:25;9.52;;;6.30;;
7479;SDS011;3781;42.272;22.658;2023-02-19T11:38:57;11.17;;;6.70;;
7479;SDS011;3781;42.272;22.658;2023-02-19T11:41:43;11.17;;;6.27;;
7479;SDS011;3781;42.272;22.658;2023-02-19T11:44:20;9.20;;;5.88;;
7479;SDS011;3781;42.272;22.658;2023-02-19T11:47:04;10.43;;;5.68;;
7479;SDS011;3781;42.272;22.658;2023-02-19T11:49:54;7.80;;;5.15;;
7479;SDS011;3781;42.272;22.658;2023-02-19T11:52:28;8.65;;;5.15;;
7479;SDS011;3781;42.272;22.658;2023-02-19T11:55:03;5.75;;;4.38;;
7479;SDS011;3781;42.272;22.658;2023-02-19T11:57:40;11.38;;;5.10;;
7479;SDS011;3781;42.272;22.658;2023-02-19T12:00:20;6.35;;;4.47;;
7479;SDS011;3781;42.272;22.658;2023-02-19T12:03:03;6.43;;;4.47;;
7479;SDS011;3781;42.272;22.658;2023-02-19T12:05:58;10.55;;;4.00;;
7479;SDS011;3781;42.272;22.658;2023-02-19T12:08:50;7.45;;;3.80;;
7479;SDS011;3781;42.272;22.658;2023-02-19T12:11:34;7.88;;;4.18;;
7479;SDS011;3781;42.272;22.658;2023-02-19T12:14:17;6.10;;;4.55;;
7479;SDS011;3781;42.272;22.658;2023-02-19T12:17:06;6.78;;;3.20;;
7479;SDS011;3781;42.272;22.658;2023-02-19T12:19:45;6.28;;;3.28;;
7479;SDS011;3781;42.272;22.658;2023-02-19T12:22:27;3.03;;;2.72;;
7479;SDS011;3781;42.272;22.658;2023-02-19T12:28:02;3.80;;;2.45;;
7479;SDS011;3781;42.272;22.658;2023-02-19T12:36:42;5.00;;;3.72;;
7479;SDS011;3781;42.272;22.658;2023-02-19T12:39:20;5.80;;;3.05;;
7479;SDS011;3781;42.272;22.658;2023-02-19T12:42:00;3.25;;;2.72;;
7479;SDS011;3781;42.272;22.658;2023-02-19T12:44:36;5.07;;;3.05;;
7479;SDS011;3781;42.272;22.658;2023-02-19T12:47:08;2.92;;;2.38;;
7479;SDS011;3781;42.272;22.658;2023-02-19T12:49:43;2.45;;;2.13;;
7479;SDS011;3781;42.272;22.658;2023-02-19T12:52:17;2.30;;;2.10;;
7479;SDS011;3781;42.272;22.658;2023-02-19T12:54:48;5.97;;;2.75;;
7479;SDS011;3781;42.272;22.658;2023-02-19T12:57:19;6.45;;;2.78;;
7479;SDS011;3781;42.272;22.658;2023-02-19T12:59:50;6.15;;;3.20;;
7479;SDS011;3781;42.272;22.658;2023-02-19T13:02:24;4.93;;;3.15;;
7479;SDS011;3781;42.272;22.658;2023-02-19T13:04:57;7.35;;;3.28;;
7479;SDS011;3781;42.272;22.658;2023-02-19T13:07:34;0.95;;;0.95;;
7479;SDS011;3781;42.272;22.658;2023-02-19T13:10:11;9.27;;;3.13;;
7479;SDS011;3781;42.272;22.658;2023-02-19T13:12:50;4.80;;;2.07;;
7479;SDS011;3781;42.272;22.658;2023-02-19T13:15:25;11.70;;;2.53;;
7479;SDS011;3781;42.272;22.658;2023-02-19T13:17:58;1.00;;;0.90;;
7479;SDS011;3781;42.272;22.658;2023-02-19T13:20:29;1.13;;;0.87;;
7479;SDS011;3781;42.272;22.658;2023-02-19T13:23:00;1.63;;;0.97;;
7479;SDS011;3781;42.272;22.658;2023-02-19T13:29:32;2.33;;;1.60;;
7479;SDS011;3781;42.272;22.658;2023-02-19T13:32:41;1.67;;;1.47;;
7479;SDS011;3781;42.272;22.658;2023-02-19T13:35:24;1.00;;;1.00;;
7479;SDS011;3781;42.272;22.658;2023-02-19T13:38:02;0.83;;;0.60;;
7479;SDS011;3781;42.272;22.658;2023-02-19T13:40:32;1.90;;;1.80;;
7479;SDS011;3781;42.272;22.658;2023-02-19T13:43:01;1.30;;;1.17;;
7479;SDS011;3781;42.272;22.658;2023-02-19T13:45:31;1.00;;;0.90;;
7479;SDS011;3781;42.272;22.658;2023-02-19T13:48:01;2.80;;;1.50;;
7479;SDS011;3781;42.272;22.658;2023-02-19T13:50:39;1.10;;;0.73;;
7479;SDS011;3781;42.272;22.658;2023-02-19T13:59:24;1.23;;;0.93;;
7479;SDS011;3781;42.272;22.658;2023-02-19T14:04:48;12.30;;;4.23;;
7479;SDS011;3781;42.272;22.658;2023-02-19T14:07:19;13.53;;;4.70;;
7479;SDS011;3781;42.272;22.658;2023-02-19T14:10:01;2.40;;;2.03;;
7479;SDS011;3781;42.272;22.658;2023-02-19T14:12:33;7.20;;;3.90;;
7479;SDS011;3781;42.272;22.658;2023-02-19T14:21:17;4.03;;;1.87;;
7479;SDS011;3781;42.272;22.658;2023-02-19T14:23:50;1.50;;;1.40;;
7479;SDS011;3781;42.272;22.658;2023-02-19T14:26:18;2.90;;;1.53;;
7479;SDS011;3781;42.272;22.658;2023-02-19T14:28:47;2.50;;;1.30;;
7479;SDS011;3781;42.272;22.658;2023-02-19T14:31:21;2.70;;;0.70;;
7479;SDS011;3781;42.272;22.658;2023-02-19T14:33:54;3.43;;;0.90;;
7479;SDS011;3781;42.272;22.658;2023-02-19T14:36:28;1.80;;;0.97;;
7479;SDS011;3781;42.272;22.658;2023-02-19T14:38:59;2.53;;;1.90;;
7479;SDS011;3781;42.272;22.658;2023-02-19T14:41:29;4.60;;;1.47;;
7479;SDS011;3781;42.272;22.658;2023-02-19T14:44:00;2.40;;;1.83;;
7479;SDS011;3781;42.272;22.658;2023-02-19T14:46:28;11.27;;;1.73;;
7479;SDS011;3781;42.272;22.658;2023-02-19T14:48:58;1.97;;;1.50;;
7479;SDS011;3781;42.272;22.658;2023-02-19T14:51:31;2.77;;;1.80;;
7479;SDS011;3781;42.272;22.658;2023-02-19T14:54:02;4.63;;;1.43;;
7479;SDS011;3781;42.272;22.658;2023-02-19T14:56:36;6.43;;;2.70;;
7479;SDS011;3781;42.272;22.658;2023-02-19T15:01:56;2.17;;;1.90;;
7479;SDS011;3781;42.272;22.658;2023-02-19T15:04:26;5.80;;;2.97;;
7479;SDS011;3781;42.272;22.658;2023-02-19T15:06:55;2.83;;;1.83;;
7479;SDS011;3781;42.272;22.658;2023-02-19T15:09:28;6.30;;;2.43;;
7479;SDS011;3781;42.272;22.658;2023-02-19T15:11:56;4.67;;;2.13;;
7479;SDS011;3781;42.272;22.658;2023-02-19T15:14:24;4.00;;;2.27;;
7479;SDS011;3781;42.272;22.658;2023-02-19T15:16:56;1.55;;;0.90;;
7479;SDS011;3781;42.272;22.658;2023-02-19T15:19:24;1.00;;;1.00;;
7479;SDS011;3781;42.272;22.658;2023-02-19T15:21:52;1.10;;;1.00;;
7479;SDS011;3781;42.272;22.658;2023-02-19T15:24:19;1.07;;;0.60;;
7479;SDS011;3781;42.272;22.658;2023-02-19T15:26:47;0.87;;;0.80;;
7479;SDS011;3781;42.272;22.658;2023-02-19T15:29:16;1.10;;;0.70;;
7479;SDS011;3781;42.272;22.658;2023-02-19T15:31:45;0.83;;;0.80;;
7479;SDS011;3781;42.272;22.658;2023-02-19T15:34:18;0.73;;;0.73;;
7479;SDS011;3781;42.272;22.658;2023-02-19T15:36:46;1.33;;;0.93;;
7479;SDS011;3781;42.272;22.658;2023-02-19T15:39:16;2.93;;;1.10;;
7479;SDS011;3781;42.272;22.658;2023-02-19T15:41:49;4.03;;;0.93;;
7479;SDS011;3781;42.272;22.658;2023-02-19T15:44:25;0.90;;;0.60;;
7479;SDS011;3781;42.272;22.658;2023-02-19T15:46:57;1.10;;;0.73;;
7479;SDS011;3781;42.272;22.658;2023-02-19T15:49:37;3.07;;;0.83;;